Veuillez saisir l'adresse e-mail associée à votre compte d'utilisateur. Votre identifiant vous sera envoyé à cette adresse.

METAR TAF

[Source: ADDS]
METAR
LFCR 211800Z AUTO 30010KT 9999 OVC010 16/14 Q1023 NOSIG =
LFCR 211700Z 2118/2218 32010KT 9999 BKN020 PROB40 2118/2120 BKN012 BECMG 2123/2202 VRB03KT 4000 BR PROB40 2203/2207 0800 BCFG BECMG 2206/2208 CAVOK TEMPO 2214/2217 30010KT LFBA 211800Z AUTO 32004KT 9999 FEW009 SCT016 OVC024 17/16 Q1023 NOSIG =
LFBA 211400Z 2115/2124 26008KT 9999 SCT025 BKN040 TEMPO 2115/2118 34015G25KT 4000 -RADZ BKN008 BKN013 BKN025 LFSL 211800Z AUTO 00000KT 9999 FEW006 BKN078 OVC090 15/14 Q1023 NOSIG =
AMD LFSL 211512Z 2115/2124 31008KT 9999 OVC007 TEMPO 2115/2116 3000 -RA OVC004 BECMG 2116/2118 SCT025
TAF
LFCR 211700Z 2118/2218 32010KT 9999 BKN020 PROB40 2118/2120 BKN012 BECMG 2123/2202 VRB03KT 4000 BR PROB40 2203/2207 0800 BCFG BECMG 2206/2208 CAVOK TEMPO 2214/2217 30010KT =
LFBA 211400Z 2115/2124 26008KT 9999 SCT025 BKN040 TEMPO 2115/2118 34015G25KT 4000 -RADZ BKN008 BKN013 BKN025 =
AMD LFSL 211512Z 2115/2124 31008KT 9999 OVC007 TEMPO 2115/2116 3000 -RA OVC004 BECMG 2116/2118 SCT025 =
SR / SS: 05:40 / 17:54 UTC (LFCC 2018-09-21)